Rome, Italy
Current Conditions -  °F | °C
As of 9:50 PM on Friday 24 Oct 2014 (Local Time) from LIRU Reporting Station
Clear Clear  
Wind Chill: 57°   Ceiling: Unl
Heat Index: 57°   Visibility: 6mi
Dew Point: 41°   Wind: 3mph
Humidity: 55%   Direction: NA
Pressure: 29.91"   Gusts: NA
Location:  41.9°N, 12.48°E
Report Text: LIRU 241950Z VRB03KT CAVOK 14/05 Q1013
Loading
Personal Weather Stations






























Interactive Weather Map
Tropical Storm Tracking
New forecast layout! Learn more

10-Day Weather Forecast

Advertisements
Track Severe Weather on mobile